createdAt,value
2018-10-09T00:01:40.446Z,11.47
2018-10-09T00:04:08.472Z,11.50
2018-10-09T00:06:36.516Z,13.70
2018-10-09T00:09:06.290Z,13.93
2018-10-09T00:11:34.436Z,15.90
2018-10-09T00:14:02.512Z,18.87
2018-10-09T00:16:30.533Z,15.67
2018-10-09T00:18:58.917Z,17.77
2018-10-09T00:21:26.989Z,17.07
2018-10-09T00:23:55.005Z,20.37
2018-10-09T00:26:23.145Z,14.57
2018-10-09T00:28:51.187Z,15.37
2018-10-09T00:31:19.314Z,15.17
2018-10-09T00:33:47.347Z,14.40
2018-10-09T00:36:15.407Z,18.70
2018-10-09T00:38:43.461Z,18.17
2018-10-09T00:41:11.536Z,17.23
2018-10-09T00:43:39.580Z,21.63
2018-10-09T00:46:07.664Z,24.47
2018-10-09T00:48:35.694Z,15.83
2018-10-09T00:51:03.769Z,23.30
2018-10-09T00:53:31.843Z,18.40
2018-10-09T00:55:59.879Z,19.60
2018-10-09T00:58:27.925Z,22.90
2018-10-09T01:00:56.018Z,15.30
2018-10-09T01:03:24.116Z,18.13
2018-10-09T01:05:52.168Z,17.93
2018-10-09T01:08:20.244Z,17.60
2018-10-09T01:10:48.261Z,18.73
2018-10-09T01:13:16.386Z,18.97
2018-10-09T01:15:44.390Z,24.57
2018-10-09T01:18:12.433Z,23.57
2018-10-09T01:20:40.491Z,17.03
2018-10-09T01:23:08.577Z,20.10
2018-10-09T01:25:36.652Z,19.77
2018-10-09T01:28:04.692Z,20.83
2018-10-09T01:30:32.750Z,17.70
2018-10-09T01:33:00.811Z,20.03
2018-10-09T01:35:28.876Z,21.43
2018-10-09T01:37:56.949Z,22.20
2018-10-09T01:40:25.009Z,22.47
2018-10-09T01:42:53.100Z,18.07
2018-10-09T01:45:21.122Z,18.40
2018-10-09T01:47:49.293Z,14.37
2018-10-09T01:50:17.433Z,17.37
2018-10-09T01:52:45.467Z,17.37
2018-10-09T01:55:13.602Z,16.47
2018-10-09T01:57:41.626Z,18.30
2018-10-09T02:00:09.679Z,18.20
2018-10-09T02:02:37.762Z,17.00
2018-10-09T02:05:05.829Z,19.53
2018-10-09T02:07:33.905Z,19.00
2018-10-09T02:10:02.022Z,16.07
2018-10-09T02:12:30.153Z,17.80
2018-10-09T02:14:58.221Z,19.80
2018-10-09T02:17:26.590Z,19.73
2018-10-09T02:19:54.629Z,22.43
2018-10-09T02:22:22.664Z,17.87
2018-10-09T02:24:50.688Z,20.30
2018-10-09T02:27:18.725Z,19.87
2018-10-09T02:29:46.840Z,22.13
2018-10-09T02:32:14.896Z,19.83
2018-10-09T02:34:42.953Z,21.37
2018-10-09T02:37:10.997Z,24.83
2018-10-09T02:39:39.068Z,20.43
2018-10-09T02:42:07.188Z,20.57
2018-10-09T02:44:35.245Z,27.33
2018-10-09T02:47:03.312Z,21.40
2018-10-09T02:49:31.390Z,22.73
2018-10-09T02:51:59.486Z,19.23
2018-10-09T02:54:27.549Z,24.27
2018-10-09T02:56:55.600Z,19.33
2018-10-09T02:59:23.625Z,30.17
2018-10-09T03:01:51.658Z,27.90
2018-10-09T03:04:19.689Z,21.77
2018-10-09T03:06:47.771Z,26.13
2018-10-09T03:09:15.821Z,26.43
2018-10-09T03:11:44.052Z,25.43
2018-10-09T03:14:12.094Z,25.30
2018-10-09T03:16:40.125Z,27.73
2018-10-09T03:19:08.225Z,25.03
2018-10-09T03:21:36.294Z,25.73
2018-10-09T03:24:04.681Z,31.87
2018-10-09T03:26:32.906Z,27.67
2018-10-09T03:29:01.074Z,21.73
2018-10-09T03:31:29.178Z,21.43
2018-10-09T03:33:57.171Z,24.57
2018-10-09T03:36:25.241Z,26.10
2018-10-09T03:38:53.305Z,28.77
2018-10-09T03:41:21.354Z,25.27
2018-10-09T03:43:49.434Z,26.03
2018-10-09T03:46:17.519Z,22.50
2018-10-09T03:48:45.640Z,22.97
2018-10-09T03:51:13.658Z,21.53
2018-10-09T03:53:41.701Z,21.83
2018-10-09T03:56:09.725Z,25.57
2018-10-09T03:58:37.775Z,22.40
2018-10-09T04:01:05.853Z,19.93
2018-10-09T04:03:33.893Z,19.73
2018-10-09T04:06:01.975Z,20.00
2018-10-09T04:08:30.006Z,22.70
2018-10-09T04:10:58.062Z,21.20
2018-10-09T04:13:26.114Z,19.33
2018-10-09T04:15:54.186Z,24.43
2018-10-09T04:18:22.398Z,23.67
2018-10-09T04:20:50.445Z,19.73
2018-10-09T04:23:18.470Z,21.60
2018-10-09T04:25:46.497Z,24.87
2018-10-09T04:28:14.627Z,24.00
2018-10-09T04:30:42.711Z,26.13
2018-10-09T04:33:10.789Z,22.90
2018-10-09T04:35:38.890Z,21.47
2018-10-09T04:38:06.991Z,22.27
2018-10-09T04:40:35.090Z,21.50
2018-10-09T04:43:03.150Z,20.60
2018-10-09T04:45:31.232Z,23.90
2018-10-09T04:47:59.282Z,23.83
2018-10-09T04:50:27.325Z,22.70
2018-10-09T04:52:55.411Z,26.67
2018-10-09T04:55:23.423Z,28.27
2018-10-09T04:57:51.490Z,28.77
2018-10-09T05:00:19.545Z,27.97
2018-10-09T05:02:47.768Z,25.60
2018-10-09T05:05:15.820Z,33.97
2018-10-09T05:07:43.901Z,29.27
2018-10-09T05:10:11.991Z,28.03
2018-10-09T05:12:40.070Z,23.47
2018-10-09T05:15:08.330Z,32.47
2018-10-09T05:17:36.405Z,29.13
2018-10-09T05:20:06.521Z,31.87
2018-10-09T05:22:34.764Z,27.97
2018-10-09T05:25:02.861Z,27.37
2018-10-09T05:27:30.894Z,23.87
2018-10-09T05:29:58.932Z,25.27
2018-10-09T05:32:26.994Z,22.80
2018-10-09T05:34:55.013Z,21.80
2018-10-09T05:37:23.157Z,24.20
2018-10-09T05:39:51.256Z,21.30
2018-10-09T05:42:19.313Z,18.80
2018-10-09T05:44:47.394Z,19.50
2018-10-09T05:47:15.452Z,24.77
2018-10-09T05:49:43.477Z,23.87
2018-10-09T05:52:11.530Z,21.17
2018-10-09T05:54:39.597Z,28.80
2018-10-09T05:57:07.736Z,26.23
2018-10-09T05:59:37.125Z,23.27
2018-10-09T06:02:05.521Z,28.27
2018-10-09T06:04:33.537Z,26.50
2018-10-09T06:07:01.649Z,25.43
2018-10-09T06:09:29.744Z,27.60
2018-10-09T06:11:57.825Z,27.87
2018-10-09T06:14:25.902Z,24.97
2018-10-09T06:16:54.000Z,28.67
2018-10-09T06:19:22.061Z,30.30
2018-10-09T06:21:50.131Z,30.00
2018-10-09T06:24:18.216Z,30.53
2018-10-09T06:26:46.325Z,31.07
2018-10-09T06:29:14.365Z,29.40
2018-10-09T06:31:42.449Z,25.00
2018-10-09T06:34:10.575Z,23.93
2018-10-09T06:36:38.561Z,24.90
2018-10-09T06:39:06.996Z,24.77
2018-10-09T06:41:35.078Z,27.90
2018-10-09T06:44:03.145Z,24.43
2018-10-09T06:46:31.201Z,22.23
2018-10-09T06:48:59.260Z,25.60
2018-10-09T06:51:27.297Z,21.93
2018-10-09T06:53:55.683Z,28.00
2018-10-09T06:56:23.560Z,23.07
2018-10-09T06:58:51.636Z,23.03
2018-10-09T07:01:19.656Z,23.37
2018-10-09T07:03:47.720Z,24.50
2018-10-09T07:06:15.851Z,25.13
2018-10-09T07:08:43.873Z,23.50
2018-10-09T07:11:12.078Z,24.83
2018-10-09T07:13:40.021Z,29.30
2018-10-09T07:16:08.041Z,27.53
2018-10-09T07:18:36.201Z,26.10
2018-10-09T07:21:04.253Z,24.70
2018-10-09T07:23:32.283Z,25.93
2018-10-09T07:26:00.329Z,24.17
2018-10-09T07:28:28.379Z,26.27
2018-10-09T07:30:56.500Z,23.73
2018-10-09T07:33:24.720Z,24.67
2018-10-09T07:35:52.809Z,29.33
2018-10-09T07:38:20.849Z,23.57
2018-10-09T07:40:48.909Z,22.50
2018-10-09T07:43:17.131Z,27.43
2018-10-09T07:45:45.186Z,24.93
2018-10-09T07:48:13.312Z,27.20
2018-10-09T07:50:41.357Z,24.30
2018-10-09T07:53:09.469Z,24.43
2018-10-09T07:55:37.542Z,28.83
2018-10-09T07:58:06.773Z,25.57
2018-10-09T08:00:34.825Z,25.70
2018-10-09T08:03:02.864Z,31.07
2018-10-09T08:05:30.912Z,24.87
2018-10-09T08:07:58.975Z,21.93
2018-10-09T08:10:27.027Z,23.77
2018-10-09T08:12:55.097Z,31.50
2018-10-09T08:15:23.179Z,23.40
2018-10-09T08:17:51.268Z,26.00
2018-10-09T08:20:19.331Z,21.40
2018-10-09T08:22:47.435Z,23.20
2018-10-09T08:25:15.499Z,25.77
2018-10-09T08:27:43.588Z,21.37
2018-10-09T08:30:11.670Z,15.27
2018-10-09T08:32:39.737Z,21.67
2018-10-09T08:35:07.821Z,19.23
2018-10-09T08:37:35.909Z,18.27
2018-10-09T08:40:04.337Z,21.23
2018-10-09T08:42:32.395Z,20.87
2018-10-09T08:45:00.436Z,19.73
2018-10-09T08:47:28.515Z,19.00
2018-10-09T08:49:56.566Z,21.77
2018-10-09T08:52:24.650Z,25.20
2018-10-09T08:54:52.719Z,20.13
2018-10-09T08:57:20.790Z,26.13
2018-10-09T08:59:48.825Z,21.87
2018-10-09T09:02:17.097Z,28.03
2018-10-09T09:04:45.200Z,19.23
2018-10-09T09:07:13.295Z,22.53
2018-10-09T09:09:41.448Z,22.47
2018-10-09T09:12:09.574Z,23.70
2018-10-09T09:14:37.598Z,28.73
2018-10-09T09:17:05.723Z,24.80
2018-10-09T09:19:33.845Z,27.33
2018-10-09T09:22:01.913Z,19.17
2018-10-09T09:24:29.976Z,19.63
2018-10-09T09:26:58.104Z,22.93
2018-10-09T09:29:26.085Z,16.73
2018-10-09T09:31:54.369Z,30.70
2018-10-09T09:34:29.173Z,27.17
2018-10-09T09:36:57.269Z,21.30
2018-10-09T09:41:59.744Z,22.07
2018-10-09T09:44:27.780Z,30.90
2018-10-09T09:46:55.869Z,20.23
2018-10-09T09:49:23.934Z,22.67
2018-10-09T09:51:52.052Z,26.40
2018-10-09T09:54:20.087Z,25.73
2018-10-09T09:56:48.105Z,25.60
2018-10-09T09:59:16.221Z,24.60
2018-10-09T10:01:44.138Z,26.83
2018-10-09T10:04:12.206Z,29.40
2018-10-09T10:06:40.294Z,20.60
2018-10-09T10:09:08.394Z,22.80
2018-10-09T10:11:38.039Z,29.40
2018-10-09T10:14:06.810Z,31.30
2018-10-09T10:16:34.856Z,30.70
2018-10-09T10:19:02.941Z,28.83
2018-10-09T10:21:31.074Z,25.63
2018-10-09T10:23:59.088Z,26.13
2018-10-09T10:26:27.131Z,33.00
2018-10-09T10:28:55.309Z,34.37
2018-10-09T10:31:23.413Z,26.33
2018-10-09T10:33:52.183Z,25.60
2018-10-09T10:36:20.224Z,30.77
2018-10-09T10:38:48.298Z,27.03
2018-10-09T10:41:16.422Z,25.07
2018-10-09T10:43:44.481Z,31.40
2018-10-09T10:46:12.549Z,28.90
2018-10-09T10:49:21.551Z,29.23
2018-10-09T10:51:49.672Z,33.53
2018-10-09T10:54:17.997Z,28.87
2018-10-09T10:56:46.200Z,32.33
2018-10-09T10:59:14.289Z,31.33
2018-10-09T11:01:42.360Z,32.73
2018-10-09T11:04:10.519Z,35.37
2018-10-09T11:06:38.649Z,35.40
2018-10-09T11:09:08.784Z,28.63
2018-10-09T11:11:36.979Z,31.73
2018-10-09T11:14:05.097Z,32.40
2018-10-09T11:16:33.166Z,31.90
2018-10-09T11:19:01.216Z,23.93
2018-10-09T11:21:29.427Z,29.63
2018-10-09T11:23:57.527Z,33.40
2018-10-09T11:26:25.576Z,35.37
2018-10-09T11:28:53.623Z,35.73
2018-10-09T11:31:21.698Z,32.80
2018-10-09T11:33:49.742Z,21.10
2018-10-09T11:36:18.087Z,35.27
2018-10-09T11:38:46.163Z,30.20
2018-10-09T11:41:14.198Z,31.03
2018-10-09T11:43:42.270Z,23.37
2018-10-09T11:46:10.311Z,29.60
2018-10-09T11:48:38.357Z,26.80
2018-10-09T11:51:06.439Z,29.83
2018-10-09T11:53:34.508Z,29.90
2018-10-09T11:56:02.557Z,29.17
2018-10-09T11:58:30.794Z,26.73
2018-10-09T12:00:58.837Z,24.83
2018-10-09T12:03:26.949Z,21.77
2018-10-09T12:05:55.083Z,22.53
2018-10-09T12:08:23.091Z,24.80
2018-10-09T12:10:51.143Z,22.77
2018-10-09T12:13:19.229Z,23.70
2018-10-09T12:15:47.313Z,22.23
2018-10-09T12:18:16.334Z,25.17
2018-10-09T12:20:44.643Z,22.27
2018-10-09T12:23:12.672Z,27.27
2018-10-09T12:25:40.755Z,26.67
2018-10-09T12:28:08.878Z,24.00
2018-10-09T12:30:36.933Z,26.43
2018-10-09T12:33:05.001Z,21.90
2018-10-09T12:35:33.070Z,24.57
2018-10-09T12:38:01.171Z,29.20
2018-10-09T12:40:29.288Z,24.47
2018-10-09T12:42:57.345Z,28.23
2018-10-09T12:45:25.585Z,24.50
2018-10-09T12:47:53.811Z,26.30
2018-10-09T12:50:21.877Z,21.30
2018-10-09T12:52:49.965Z,21.50
2018-10-09T12:55:18.017Z,18.93
2018-10-09T12:57:46.067Z,16.63
2018-10-09T13:00:14.331Z,24.40
2018-10-09T13:02:42.408Z,17.20
2018-10-09T13:05:10.605Z,19.87
2018-10-09T13:07:38.833Z,21.43
2018-10-09T13:10:06.954Z,15.03
2018-10-09T13:12:35.013Z,19.63
2018-10-09T13:15:03.176Z,22.27
2018-10-09T13:17:31.338Z,20.30
2018-10-09T13:19:59.357Z,19.73
2018-10-09T13:22:27.813Z,24.63
2018-10-09T13:24:55.450Z,15.33
2018-10-09T13:27:23.504Z,25.93
2018-10-09T13:29:51.544Z,12.57
2018-10-09T13:32:19.725Z,22.90
2018-10-09T13:34:47.798Z,19.20
2018-10-09T13:37:15.909Z,17.37
2018-10-09T13:39:43.986Z,21.70
2018-10-09T13:42:12.463Z,18.23
2018-10-09T13:44:40.546Z,18.63
2018-10-09T13:47:08.784Z,21.43
2018-10-09T13:49:37.004Z,19.20
2018-10-09T13:52:05.800Z,18.80
2018-10-09T13:54:33.833Z,20.93
2018-10-09T13:57:01.872Z,17.27
2018-10-09T13:59:30.463Z,23.73
2018-10-09T14:01:58.652Z,19.07
2018-10-09T14:04:27.293Z,23.37
2018-10-09T14:06:55.382Z,17.00
2018-10-09T14:09:23.485Z,12.97
2018-10-09T14:11:51.583Z,17.37
2018-10-09T14:14:19.758Z,14.73
2018-10-09T14:16:47.815Z,15.47
2018-10-09T14:19:15.926Z,20.90
2018-10-09T14:21:44.008Z,16.57
2018-10-09T14:24:12.059Z,12.10
2018-10-09T14:26:40.140Z,19.87
2018-10-09T14:29:08.221Z,17.53
2018-10-09T14:31:36.292Z,17.60
2018-10-09T14:34:04.388Z,16.13
2018-10-09T14:36:32.501Z,13.17
2018-10-09T14:39:00.581Z,15.43
2018-10-09T14:41:28.671Z,12.00
2018-10-09T14:43:57.308Z,12.83
2018-10-09T14:46:25.437Z,17.80
2018-10-09T14:48:53.505Z,15.13
2018-10-09T14:51:21.712Z,18.27
2018-10-09T14:53:49.854Z,14.53
2018-10-09T14:56:17.919Z,13.10
2018-10-09T14:58:45.993Z,13.80
2018-10-09T15:01:14.138Z,11.27
2018-10-09T15:03:42.245Z,13.03
2018-10-09T15:06:10.315Z,14.97
2018-10-09T15:08:38.482Z,17.67
2018-10-09T15:11:06.624Z,17.73
2018-10-09T15:13:34.714Z,11.13
2018-10-09T15:16:02.930Z,6.70
2018-10-09T15:18:30.992Z,13.60
2018-10-09T15:20:59.048Z,12.93
2018-10-09T15:23:27.133Z,17.23
2018-10-09T15:25:55.203Z,13.20
2018-10-09T15:28:23.325Z,11.47
2018-10-09T15:30:51.417Z,12.87
2018-10-09T15:33:19.441Z,17.97
2018-10-09T15:35:47.654Z,12.23
2018-10-09T15:38:15.795Z,10.63
2018-10-09T15:40:45.935Z,13.80
2018-10-09T15:43:13.999Z,14.10
2018-10-09T15:45:42.098Z,17.17
2018-10-09T15:48:10.169Z,13.77
2018-10-09T15:50:38.457Z,11.90
2018-10-09T15:53:06.524Z,15.43
2018-10-09T15:55:34.635Z,13.80
2018-10-09T15:58:02.921Z,14.47
2018-10-09T16:00:30.983Z,15.53
2018-10-09T16:02:59.109Z,13.93
2018-10-09T16:05:27.262Z,17.60
2018-10-09T16:07:55.365Z,18.03
2018-10-09T16:10:23.538Z,14.40
2018-10-09T16:12:51.740Z,14.13
2018-10-09T16:15:19.877Z,16.73
2018-10-09T16:17:48.018Z,13.97
2018-10-09T16:20:16.146Z,11.27
2018-10-09T16:22:50.997Z,12.33
2018-10-09T16:25:19.167Z,11.87
2018-10-09T16:27:47.248Z,11.40
2018-10-09T16:30:15.337Z,14.53
2018-10-09T16:32:43.582Z,12.33
2018-10-09T16:35:11.641Z,16.17
2018-10-09T16:37:39.791Z,13.50
2018-10-09T16:40:07.883Z,14.37
2018-10-09T16:42:36.000Z,13.80
2018-10-09T16:45:04.113Z,12.23
2018-10-09T16:47:32.309Z,17.63
2018-10-09T16:50:00.313Z,12.40
2018-10-09T16:52:28.370Z,10.93
2018-10-09T16:54:56.709Z,12.80
2018-10-09T16:57:24.770Z,13.07
2018-10-09T16:59:53.032Z,12.43
2018-10-09T17:02:21.288Z,14.50
2018-10-09T17:04:50.214Z,14.27
2018-10-09T17:07:18.486Z,14.17
2018-10-09T17:09:46.568Z,14.33
2018-10-09T17:12:14.744Z,15.23
2018-10-09T17:14:42.878Z,14.47
2018-10-09T17:17:10.937Z,13.80
2018-10-09T17:19:39.121Z,15.57
2018-10-09T17:22:07.215Z,12.17
2018-10-09T17:24:35.256Z,13.20
2018-10-09T17:27:03.382Z,11.27
2018-10-09T17:29:31.456Z,15.67
2018-10-09T17:32:02.435Z,11.67
2018-10-09T17:34:32.674Z,13.63
2018-10-09T17:37:02.144Z,15.27
2018-10-09T17:39:30.554Z,12.33
2018-10-09T17:41:58.639Z,12.90
2018-10-09T17:44:26.829Z,12.83
2018-10-09T17:46:55.591Z,11.57
2018-10-09T17:49:23.677Z,14.57
2018-10-09T17:51:52.298Z,11.10
2018-10-09T17:54:20.601Z,12.53
2018-10-09T17:56:48.670Z,13.07
2018-10-09T17:59:16.786Z,12.63
2018-10-09T18:01:44.926Z,16.07
2018-10-09T18:04:13.076Z,10.33
2018-10-09T18:06:41.279Z,11.93
2018-10-09T18:09:10.129Z,13.37
2018-10-09T18:11:38.246Z,11.00
2018-10-09T18:14:06.353Z,15.00
2018-10-09T18:16:34.555Z,11.87
2018-10-09T18:19:02.630Z,14.20
2018-10-09T18:21:30.910Z,17.00
2018-10-09T18:23:58.981Z,25.17
2018-10-09T18:26:27.115Z,23.40
2018-10-09T18:28:55.247Z,20.07
2018-10-09T18:31:23.324Z,22.30
2018-10-09T18:33:51.428Z,16.30
2018-10-09T18:36:19.524Z,18.13
2018-10-09T18:38:47.672Z,12.17
2018-10-09T18:41:15.920Z,19.27
2018-10-09T18:43:43.979Z,14.83
2018-10-09T18:46:12.111Z,18.50
2018-10-09T18:48:40.233Z,14.67
2018-10-09T18:51:08.346Z,16.03
2018-10-09T18:53:36.421Z,17.10
2018-10-09T18:56:04.810Z,20.27
2018-10-09T18:58:32.878Z,19.47
2018-10-09T19:01:01.066Z,22.17
2018-10-09T19:03:29.186Z,16.37
2018-10-09T19:05:57.489Z,19.23
2018-10-09T19:08:25.927Z,16.93
2018-10-09T19:10:54.137Z,16.87
2018-10-09T19:13:22.236Z,17.43
2018-10-09T19:15:50.783Z,17.37
2018-10-09T19:18:19.278Z,14.73
2018-10-09T19:20:47.880Z,15.93
2018-10-09T19:23:16.427Z,16.10
2018-10-09T19:25:44.540Z,16.40
2018-10-09T19:28:14.038Z,14.17
2018-10-09T19:30:46.617Z,15.00
2018-10-09T19:33:14.672Z,14.37
2018-10-09T19:35:42.844Z,14.60
2018-10-09T19:38:10.975Z,15.47
2018-10-09T19:40:39.019Z,15.60
2018-10-09T19:43:07.438Z,16.87
2018-10-09T19:45:35.588Z,22.30
2018-10-09T19:48:03.846Z,23.10
2018-10-09T19:50:32.011Z,17.13
2018-10-09T19:53:00.089Z,16.93
2018-10-09T19:55:28.235Z,13.07
2018-10-09T19:57:56.570Z,15.47
2018-10-09T20:00:24.671Z,14.20
2018-10-09T20:02:52.810Z,14.23
2018-10-09T20:05:20.929Z,17.67
2018-10-09T20:07:49.153Z,14.27
2018-10-09T20:10:17.362Z,13.67
2018-10-09T20:12:45.494Z,18.90
2018-10-09T20:15:13.625Z,18.50
2018-10-09T20:17:41.774Z,15.43
2018-10-09T20:20:10.125Z,15.97
2018-10-09T20:22:38.233Z,16.90
2018-10-09T20:25:06.402Z,21.57
2018-10-09T20:27:34.487Z,14.87
2018-10-09T20:30:02.573Z,17.40
2018-10-09T20:32:30.682Z,15.77
2018-10-09T20:34:58.829Z,18.93
2018-10-09T20:37:27.068Z,18.47
2018-10-09T20:39:55.149Z,19.67
2018-10-09T20:42:23.313Z,18.03
2018-10-09T20:44:51.428Z,18.20
2018-10-09T20:47:19.497Z,16.20
2018-10-09T20:49:47.573Z,14.00
2018-10-09T20:52:15.875Z,16.60
2018-10-09T20:54:50.732Z,21.03
2018-10-09T20:57:19.889Z,20.13
2018-10-09T20:59:49.021Z,22.50
2018-10-09T21:02:17.193Z,14.00
2018-10-09T21:04:47.241Z,14.67
2018-10-09T21:07:15.546Z,16.87
2018-10-09T21:09:44.209Z,17.77
2018-10-09T21:12:12.309Z,17.83
2018-10-09T21:14:40.358Z,18.17
2018-10-09T21:17:08.449Z,18.57
2018-10-09T21:19:36.535Z,19.63
2018-10-09T21:22:04.672Z,20.27
2018-10-09T21:24:32.729Z,21.13
2018-10-09T21:27:00.769Z,21.37
2018-10-09T21:29:28.913Z,18.70
2018-10-09T21:31:57.090Z,17.67
2018-10-09T21:34:25.142Z,14.23
2018-10-09T21:36:53.214Z,16.00
2018-10-09T21:39:21.254Z,15.97
2018-10-09T21:41:49.486Z,14.83
2018-10-09T21:44:17.941Z,16.67
2018-10-09T21:46:46.204Z,16.13
2018-10-09T21:49:14.297Z,15.80
2018-10-09T21:51:42.342Z,15.97
2018-10-09T21:54:10.376Z,15.30
2018-10-09T21:56:38.422Z,15.40
2018-10-09T21:59:06.581Z,18.93
2018-10-09T22:01:34.643Z,19.20
2018-10-09T22:04:02.757Z,19.63
2018-10-09T22:06:30.826Z,18.30
2018-10-09T22:08:58.889Z,19.10
2018-10-09T22:11:26.946Z,19.57
2018-10-09T22:13:54.991Z,16.03
2018-10-09T22:16:23.040Z,19.03
2018-10-09T22:18:51.156Z,16.27
2018-10-09T22:21:19.354Z,20.83
2018-10-09T22:23:47.499Z,20.60
2018-10-09T22:26:15.802Z,19.07
2018-10-09T22:28:43.973Z,19.23
2018-10-09T22:31:12.021Z,20.83
2018-10-09T22:33:40.089Z,20.00
2018-10-09T22:36:08.174Z,25.47
2018-10-09T22:38:36.311Z,19.67
2018-10-09T22:41:04.305Z,23.73
2018-10-09T22:43:32.371Z,21.00
2018-10-09T22:46:00.424Z,20.83
2018-10-09T22:48:28.474Z,19.17
2018-10-09T22:50:56.524Z,18.43
2018-10-09T22:53:24.590Z,22.70
2018-10-09T22:55:52.626Z,21.40
2018-10-09T22:58:20.788Z,23.50
2018-10-09T23:00:48.812Z,23.40
2018-10-09T23:03:16.973Z,25.73
2018-10-09T23:05:44.989Z,22.70
2018-10-09T23:08:13.093Z,23.03
2018-10-09T23:10:41.142Z,31.03
2018-10-09T23:13:09.202Z,25.90
2018-10-09T23:15:37.243Z,27.43
2018-10-09T23:18:05.493Z,28.07
2018-10-09T23:20:33.568Z,21.27
2018-10-09T23:23:01.609Z,28.03
2018-10-09T23:25:29.682Z,30.40
2018-10-09T23:27:57.829Z,25.17
2018-10-09T23:30:25.911Z,27.10
2018-10-09T23:32:54.030Z,26.77
2018-10-09T23:35:22.069Z,28.00
2018-10-09T23:37:50.117Z,25.50
2018-10-09T23:40:18.297Z,26.47
2018-10-09T23:42:46.368Z,28.47
2018-10-09T23:45:14.493Z,32.47
2018-10-09T23:47:42.536Z,30.10
2018-10-09T23:50:10.669Z,30.07
2018-10-09T23:52:38.696Z,27.73
2018-10-09T23:55:06.835Z,36.83
2018-10-09T23:57:34.925Z,30.30
